sensor_id;sensor_type;location;lat;lon;timestamp;P1;durP1;ratioP1;P2;durP2;ratioP2
17727;SDS011;8984;49.268;12.302;2023-10-31T00:02:07;6.47;;;4.93;;
17727;SDS011;8984;49.268;12.302;2023-10-31T00:04:34;8.57;;;4.90;;
17727;SDS011;8984;49.268;12.302;2023-10-31T00:07:04;5.27;;;4.70;;
17727;SDS011;8984;49.268;12.302;2023-10-31T00:09:31;5.90;;;4.77;;
17727;SDS011;8984;49.268;12.302;2023-10-31T00:11:58;5.93;;;4.30;;
17727;SDS011;8984;49.268;12.302;2023-10-31T00:14:25;6.10;;;4.57;;
17727;SDS011;8984;49.268;12.302;2023-10-31T00:16:52;7.20;;;4.23;;
17727;SDS011;8984;49.268;12.302;2023-10-31T00:19:19;5.13;;;4.60;;
17727;SDS011;8984;49.268;12.302;2023-10-31T00:21:45;7.93;;;5.27;;
17727;SDS011;8984;49.268;12.302;2023-10-31T00:24:13;7.77;;;4.70;;
17727;SDS011;8984;49.268;12.302;2023-10-31T00:26:40;7.23;;;4.77;;
17727;SDS011;8984;49.268;12.302;2023-10-31T00:29:07;7.97;;;4.80;;
17727;SDS011;8984;49.268;12.302;2023-10-31T00:31:34;6.37;;;4.57;;
17727;SDS011;8984;49.268;12.302;2023-10-31T00:34:01;6.87;;;4.30;;
17727;SDS011;8984;49.268;12.302;2023-10-31T00:36:28;9.70;;;5.63;;
17727;SDS011;8984;49.268;12.302;2023-10-31T00:38:55;7.27;;;5.27;;
17727;SDS011;8984;49.268;12.302;2023-10-31T00:41:23;7.90;;;5.23;;
17727;SDS011;8984;49.268;12.302;2023-10-31T00:43:50;7.73;;;5.40;;
17727;SDS011;8984;49.268;12.302;2023-10-31T00:46:16;6.67;;;4.80;;
17727;SDS011;8984;49.268;12.302;2023-10-31T00:48:43;6.67;;;5.60;;
17727;SDS011;8984;49.268;12.302;2023-10-31T00:51:10;8.37;;;4.70;;
17727;SDS011;8984;49.268;12.302;2023-10-31T00:53:37;7.63;;;5.10;;
17727;SDS011;8984;49.268;12.302;2023-10-31T00:56:04;5.53;;;4.47;;
17727;SDS011;8984;49.268;12.302;2023-10-31T00:58:33;6.33;;;5.03;;
17727;SDS011;8984;49.268;12.302;2023-10-31T01:01:00;7.03;;;4.70;;
17727;SDS011;8984;49.268;12.302;2023-10-31T01:03:27;8.37;;;4.50;;
17727;SDS011;8984;49.268;12.302;2023-10-31T01:05:55;9.03;;;5.77;;
17727;SDS011;8984;49.268;12.302;2023-10-31T01:08:22;6.73;;;5.27;;
17727;SDS011;8984;49.268;12.302;2023-10-31T01:10:49;5.80;;;5.00;;
17727;SDS011;8984;49.268;12.302;2023-10-31T01:13:15;6.27;;;4.57;;
17727;SDS011;8984;49.268;12.302;2023-10-31T01:15:44;7.47;;;4.40;;
17727;SDS011;8984;49.268;12.302;2023-10-31T01:18:11;4.83;;;3.60;;
17727;SDS011;8984;49.268;12.302;2023-10-31T01:20:38;3.83;;;3.33;;
17727;SDS011;8984;49.268;12.302;2023-10-31T01:23:04;3.63;;;2.90;;
17727;SDS011;8984;49.268;12.302;2023-10-31T01:25:31;3.73;;;3.20;;
17727;SDS011;8984;49.268;12.302;2023-10-31T01:27:58;4.73;;;2.57;;
17727;SDS011;8984;49.268;12.302;2023-10-31T01:30:25;3.00;;;2.40;;
17727;SDS011;8984;49.268;12.302;2023-10-31T01:32:53;3.80;;;2.30;;
17727;SDS011;8984;49.268;12.302;2023-10-31T01:35:20;2.50;;;2.30;;
17727;SDS011;8984;49.268;12.302;2023-10-31T01:37:47;2.67;;;2.10;;
17727;SDS011;8984;49.268;12.302;2023-10-31T01:40:14;2.77;;;1.80;;
17727;SDS011;8984;49.268;12.302;2023-10-31T01:42:41;1.70;;;1.60;;
17727;SDS011;8984;49.268;12.302;2023-10-31T01:45:08;4.30;;;1.57;;
17727;SDS011;8984;49.268;12.302;2023-10-31T01:47:35;1.37;;;1.27;;
17727;SDS011;8984;49.268;12.302;2023-10-31T01:50:02;2.00;;;1.40;;
17727;SDS011;8984;49.268;12.302;2023-10-31T01:52:32;3.37;;;1.30;;
17727;SDS011;8984;49.268;12.302;2023-10-31T01:55:01;3.33;;;1.40;;
17727;SDS011;8984;49.268;12.302;2023-10-31T01:57:28;1.60;;;1.10;;
17727;SDS011;8984;49.268;12.302;2023-10-31T01:59:54;1.67;;;1.30;;
17727;SDS011;8984;49.268;12.302;2023-10-31T02:02:22;1.13;;;1.03;;
17727;SDS011;8984;49.268;12.302;2023-10-31T02:04:50;1.40;;;1.30;;
17727;SDS011;8984;49.268;12.302;2023-10-31T02:07:18;1.30;;;0.93;;
17727;SDS011;8984;49.268;12.302;2023-10-31T02:09:45;5.83;;;1.30;;
17727;SDS011;8984;49.268;12.302;2023-10-31T02:14:57;1.00;;;0.90;;
17727;SDS011;8984;49.268;12.302;2023-10-31T02:17:24;1.47;;;1.10;;
17727;SDS011;8984;49.268;12.302;2023-10-31T02:19:51;1.87;;;1.20;;
17727;SDS011;8984;49.268;12.302;2023-10-31T02:22:19;1.10;;;1.00;;
17727;SDS011;8984;49.268;12.302;2023-10-31T02:24:46;1.77;;;1.00;;
17727;SDS011;8984;49.268;12.302;2023-10-31T02:27:13;1.57;;;1.00;;
17727;SDS011;8984;49.268;12.302;2023-10-31T02:29:40;1.23;;;1.00;;
17727;SDS011;8984;49.268;12.302;2023-10-31T02:32:07;1.60;;;0.90;;
17727;SDS011;8984;49.268;12.302;2023-10-31T02:34:34;2.70;;;1.00;;
17727;SDS011;8984;49.268;12.302;2023-10-31T02:37:00;1.33;;;1.00;;
17727;SDS011;8984;49.268;12.302;2023-10-31T02:39:29;3.17;;;0.90;;
17727;SDS011;8984;49.268;12.302;2023-10-31T02:41:56;1.53;;;0.90;;
17727;SDS011;8984;49.268;12.302;2023-10-31T02:44:23;2.50;;;1.00;;
17727;SDS011;8984;49.268;12.302;2023-10-31T02:46:49;0.97;;;0.87;;
17727;SDS011;8984;49.268;12.302;2023-10-31T02:49:16;0.80;;;0.80;;
17727;SDS011;8984;49.268;12.302;2023-10-31T02:51:43;0.90;;;0.90;;
17727;SDS011;8984;49.268;12.302;2023-10-31T02:54:11;2.03;;;0.90;;
17727;SDS011;8984;49.268;12.302;2023-10-31T02:56:41;1.00;;;1.00;;
17727;SDS011;8984;49.268;12.302;2023-10-31T02:59:10;1.23;;;0.90;;
17727;SDS011;8984;49.268;12.302;2023-10-31T03:01:40;0.90;;;0.90;;
17727;SDS011;8984;49.268;12.302;2023-10-31T03:04:11;1.00;;;0.90;;
17727;SDS011;8984;49.268;12.302;2023-10-31T03:06:39;1.90;;;1.07;;
17727;SDS011;8984;49.268;12.302;2023-10-31T03:09:10;1.37;;;1.00;;
17727;SDS011;8984;49.268;12.302;2023-10-31T03:11:38;0.80;;;0.80;;
17727;SDS011;8984;49.268;12.302;2023-10-31T03:14:15;0.77;;;0.70;;
17727;SDS011;8984;49.268;12.302;2023-10-31T03:16:47;0.90;;;0.90;;
17727;SDS011;8984;49.268;12.302;2023-10-31T03:19:26;1.20;;;1.10;;
17727;SDS011;8984;49.268;12.302;2023-10-31T03:22:01;2.30;;;0.90;;
17727;SDS011;8984;49.268;12.302;2023-10-31T03:24:40;0.73;;;0.73;;
17727;SDS011;8984;49.268;12.302;2023-10-31T03:27:14;0.80;;;0.80;;
17727;SDS011;8984;49.268;12.302;2023-10-31T03:29:49;0.80;;;0.80;;
17727;SDS011;8984;49.268;12.302;2023-10-31T03:32:18;1.00;;;0.90;;
17727;SDS011;8984;49.268;12.302;2023-10-31T03:34:50;0.90;;;0.83;;
17727;SDS011;8984;49.268;12.302;2023-10-31T03:40:07;0.70;;;0.70;;
17727;SDS011;8984;49.268;12.302;2023-10-31T03:42:52;0.70;;;0.70;;
17727;SDS011;8984;49.268;12.302;2023-10-31T03:45:26;0.83;;;0.70;;
17727;SDS011;8984;49.268;12.302;2023-10-31T03:48:05;1.00;;;0.90;;
17727;SDS011;8984;49.268;12.302;2023-10-31T03:50:58;0.90;;;0.90;;
17727;SDS011;8984;49.268;12.302;2023-10-31T03:53:31;1.10;;;1.00;;
17727;SDS011;8984;49.268;12.302;2023-10-31T03:56:17;0.80;;;0.80;;
17727;SDS011;8984;49.268;12.302;2023-10-31T03:59:00;0.80;;;0.80;;
17727;SDS011;8984;49.268;12.302;2023-10-31T04:01:41;1.70;;;0.70;;
17727;SDS011;8984;49.268;12.302;2023-10-31T04:04:20;0.90;;;0.80;;
17727;SDS011;8984;49.268;12.302;2023-10-31T04:06:52;1.13;;;0.73;;
17727;SDS011;8984;49.268;12.302;2023-10-31T04:09:30;0.60;;;0.60;;
17727;SDS011;8984;49.268;12.302;2023-10-31T04:12:14;0.90;;;0.77;;
17727;SDS011;8984;49.268;12.302;2023-10-31T04:14:50;1.43;;;0.70;;
17727;SDS011;8984;49.268;12.302;2023-10-31T04:17:22;2.90;;;1.00;;
17727;SDS011;8984;49.268;12.302;2023-10-31T04:19:49;1.43;;;0.73;;
17727;SDS011;8984;49.268;12.302;2023-10-31T04:22:21;0.77;;;0.73;;
17727;SDS011;8984;49.268;12.302;2023-10-31T04:25:06;1.17;;;0.70;;
17727;SDS011;8984;49.268;12.302;2023-10-31T04:27:35;0.73;;;0.73;;
17727;SDS011;8984;49.268;12.302;2023-10-31T04:32:54;1.63;;;0.60;;
17727;SDS011;8984;49.268;12.302;2023-10-31T04:35:28;2.50;;;0.70;;
17727;SDS011;8984;49.268;12.302;2023-10-31T04:38:12;2.20;;;0.90;;
17727;SDS011;8984;49.268;12.302;2023-10-31T04:40:45;0.87;;;0.87;;
17727;SDS011;8984;49.268;12.302;2023-10-31T04:43:15;1.07;;;0.87;;
17727;SDS011;8984;49.268;12.302;2023-10-31T04:48:55;1.20;;;0.97;;
17727;SDS011;8984;49.268;12.302;2023-10-31T04:51:35;1.33;;;0.90;;
17727;SDS011;8984;49.268;12.302;2023-10-31T04:54:06;2.67;;;1.00;;
17727;SDS011;8984;49.268;12.302;2023-10-31T04:56:47;2.33;;;1.00;;
17727;SDS011;8984;49.268;12.302;2023-10-31T04:59:19;1.40;;;0.90;;
17727;SDS011;8984;49.268;12.302;2023-10-31T05:02:00;1.20;;;1.10;;
17727;SDS011;8984;49.268;12.302;2023-10-31T05:04:37;2.30;;;0.80;;
17727;SDS011;8984;49.268;12.302;2023-10-31T05:07:07;1.17;;;0.70;;
17727;SDS011;8984;49.268;12.302;2023-10-31T05:09:37;1.03;;;0.90;;
17727;SDS011;8984;49.268;12.302;2023-10-31T05:12:11;1.90;;;0.83;;
17727;SDS011;8984;49.268;12.302;2023-10-31T05:14:48;0.90;;;0.90;;
17727;SDS011;8984;49.268;12.302;2023-10-31T05:17:21;1.80;;;0.90;;
17727;SDS011;8984;49.268;12.302;2023-10-31T05:19:50;1.33;;;0.87;;
17727;SDS011;8984;49.268;12.302;2023-10-31T05:22:20;1.10;;;1.00;;
17727;SDS011;8984;49.268;12.302;2023-10-31T05:24:47;0.83;;;0.80;;
17727;SDS011;8984;49.268;12.302;2023-10-31T05:27:16;0.80;;;0.80;;
17727;SDS011;8984;49.268;12.302;2023-10-31T05:29:53;2.00;;;1.13;;
17727;SDS011;8984;49.268;12.302;2023-10-31T05:35:10;0.97;;;0.97;;
17727;SDS011;8984;49.268;12.302;2023-10-31T05:37:38;1.00;;;0.90;;
17727;SDS011;8984;49.268;12.302;2023-10-31T05:40:09;1.10;;;1.00;;
17727;SDS011;8984;49.268;12.302;2023-10-31T05:42:41;1.00;;;1.00;;
17727;SDS011;8984;49.268;12.302;2023-10-31T05:45:21;2.00;;;1.10;;
17727;SDS011;8984;49.268;12.302;2023-10-31T05:47:59;1.20;;;1.00;;
17727;SDS011;8984;49.268;12.302;2023-10-31T05:50:31;1.53;;;0.90;;
17727;SDS011;8984;49.268;12.302;2023-10-31T05:53:05;3.90;;;1.00;;
17727;SDS011;8984;49.268;12.302;2023-10-31T05:55:38;0.90;;;0.90;;
17727;SDS011;8984;49.268;12.302;2023-10-31T05:58:09;2.00;;;1.00;;
17727;SDS011;8984;49.268;12.302;2023-10-31T06:00:39;1.20;;;1.00;;
17727;SDS011;8984;49.268;12.302;2023-10-31T06:03:13;1.93;;;1.10;;
17727;SDS011;8984;49.268;12.302;2023-10-31T06:05:41;0.87;;;0.87;;
17727;SDS011;8984;49.268;12.302;2023-10-31T06:08:24;2.37;;;1.10;;
17727;SDS011;8984;49.268;12.302;2023-10-31T06:10:54;1.53;;;1.10;;
17727;SDS011;8984;49.268;12.302;2023-10-31T06:13:23;1.10;;;0.97;;
17727;SDS011;8984;49.268;12.302;2023-10-31T06:15:53;1.13;;;1.03;;
17727;SDS011;8984;49.268;12.302;2023-10-31T06:18:24;1.53;;;1.20;;
17727;SDS011;8984;49.268;12.302;2023-10-31T06:20:55;0.90;;;0.90;;
17727;SDS011;8984;49.268;12.302;2023-10-31T06:23:26;1.83;;;0.97;;
17727;SDS011;8984;49.268;12.302;2023-10-31T06:26:02;2.27;;;1.20;;
17727;SDS011;8984;49.268;12.302;2023-10-31T06:28:30;3.30;;;1.33;;
17727;SDS011;8984;49.268;12.302;2023-10-31T06:31:07;1.57;;;1.20;;
17727;SDS011;8984;49.268;12.302;2023-10-31T06:33:41;6.17;;;1.00;;
17727;SDS011;8984;49.268;12.302;2023-10-31T06:36:16;1.80;;;1.30;;
17727;SDS011;8984;49.268;12.302;2023-10-31T06:38:50;2.93;;;0.97;;
17727;SDS011;8984;49.268;12.302;2023-10-31T06:41:17;3.73;;;1.07;;
17727;SDS011;8984;49.268;12.302;2023-10-31T06:43:45;0.90;;;0.90;;
17727;SDS011;8984;49.268;12.302;2023-10-31T06:46:20;1.27;;;1.00;;
17727;SDS011;8984;49.268;12.302;2023-10-31T06:48:58;1.10;;;1.00;;
17727;SDS011;8984;49.268;12.302;2023-10-31T06:51:37;4.10;;;1.10;;
17727;SDS011;8984;49.268;12.302;2023-10-31T06:54:09;1.30;;;1.20;;
17727;SDS011;8984;49.268;12.302;2023-10-31T06:56:37;1.40;;;1.30;;
17727;SDS011;8984;49.268;12.302;2023-10-31T06:59:07;1.20;;;1.10;;
17727;SDS011;8984;49.268;12.302;2023-10-31T07:01:37;1.60;;;1.13;;
17727;SDS011;8984;49.268;12.302;2023-10-31T07:04:08;1.50;;;1.10;;
17727;SDS011;8984;49.268;12.302;2023-10-31T07:06:36;1.53;;;1.10;;
17727;SDS011;8984;49.268;12.302;2023-10-31T07:09:05;1.27;;;1.03;;
17727;SDS011;8984;49.268;12.302;2023-10-31T07:11:33;1.87;;;1.30;;
17727;SDS011;8984;49.268;12.302;2023-10-31T07:14:02;1.00;;;0.93;;
17727;SDS011;8984;49.268;12.302;2023-10-31T07:16:35;7.37;;;1.60;;
17727;SDS011;8984;49.268;12.302;2023-10-31T07:19:06;18.70;;;2.40;;
17727;SDS011;8984;49.268;12.302;2023-10-31T07:21:52;11.00;;;1.97;;
17727;SDS011;8984;49.268;12.302;2023-10-31T07:24:30;3.10;;;1.00;;
17727;SDS011;8984;49.268;12.302;2023-10-31T07:27:00;1.33;;;1.23;;
17727;SDS011;8984;49.268;12.302;2023-10-31T07:29:29;1.60;;;1.00;;
17727;SDS011;8984;49.268;12.302;2023-10-31T07:32:05;2.83;;;1.10;;
17727;SDS011;8984;49.268;12.302;2023-10-31T07:37:35;3.33;;;2.17;;
17727;SDS011;8984;49.268;12.302;2023-10-31T07:40:05;2.63;;;1.53;;
17727;SDS011;8984;49.268;12.302;2023-10-31T07:43:04;2.00;;;1.27;;
17727;SDS011;8984;49.268;12.302;2023-10-31T07:45:38;2.23;;;1.20;;
17727;SDS011;8984;49.268;12.302;2023-10-31T07:48:12;1.23;;;1.00;;
17727;SDS011;8984;49.268;12.302;2023-10-31T07:50:46;1.87;;;1.30;;
17727;SDS011;8984;49.268;12.302;2023-10-31T07:53:17;2.60;;;1.20;;
17727;SDS011;8984;49.268;12.302;2023-10-31T07:55:54;1.30;;;0.90;;
17727;SDS011;8984;49.268;12.302;2023-10-31T07:58:26;6.33;;;4.30;;
17727;SDS011;8984;49.268;12.302;2023-10-31T08:01:16;1.93;;;1.50;;
17727;SDS011;8984;49.268;12.302;2023-10-31T08:03:52;1.83;;;0.93;;
17727;SDS011;8984;49.268;12.302;2023-10-31T08:09:29;1.90;;;1.00;;
17727;SDS011;8984;49.268;12.302;2023-10-31T08:12:04;1.10;;;1.00;;
17727;SDS011;8984;49.268;12.302;2023-10-31T08:14:42;1.73;;;0.90;;
17727;SDS011;8984;49.268;12.302;2023-10-31T08:17:21;2.03;;;1.10;;
17727;SDS011;8984;49.268;12.302;2023-10-31T08:19:55;3.13;;;0.80;;
17727;SDS011;8984;49.268;12.302;2023-10-31T08:22:34;1.83;;;1.10;;
17727;SDS011;8984;49.268;12.302;2023-10-31T08:25:25;1.80;;;1.00;;
17727;SDS011;8984;49.268;12.302;2023-10-31T08:27:54;3.00;;;1.20;;
17727;SDS011;8984;49.268;12.302;2023-10-31T08:30:25;2.60;;;1.30;;
17727;SDS011;8984;49.268;12.302;2023-10-31T08:32:55;2.73;;;0.93;;
17727;SDS011;8984;49.268;12.302;2023-10-31T08:35:24;1.10;;;1.00;;
17727;SDS011;8984;49.268;12.302;2023-10-31T08:38:02;1.23;;;0.90;;
17727;SDS011;8984;49.268;12.302;2023-10-31T08:40:40;1.77;;;0.90;;
17727;SDS011;8984;49.268;12.302;2023-10-31T08:43:26;1.07;;;0.93;;
17727;SDS011;8984;49.268;12.302;2023-10-31T08:45:55;1.43;;;0.90;;
17727;SDS011;8984;49.268;12.302;2023-10-31T08:51:09;1.80;;;1.00;;
17727;SDS011;8984;49.268;12.302;2023-10-31T08:53:38;0.80;;;0.70;;
17727;SDS011;8984;49.268;12.302;2023-10-31T08:56:17;1.03;;;0.93;;
17727;SDS011;8984;49.268;12.302;2023-10-31T08:58:52;2.67;;;1.03;;
17727;SDS011;8984;49.268;12.302;2023-10-31T09:01:45;1.23;;;1.13;;
17727;SDS011;8984;49.268;12.302;2023-10-31T09:07:02;1.33;;;1.03;;
17727;SDS011;8984;49.268;12.302;2023-10-31T09:09:46;1.43;;;0.90;;
17727;SDS011;8984;49.268;12.302;2023-10-31T09:12:19;2.73;;;1.00;;
17727;SDS011;8984;49.268;12.302;2023-10-31T09:14:47;1.03;;;0.93;;
17727;SDS011;8984;49.268;12.302;2023-10-31T09:17:17;1.20;;;1.00;;
17727;SDS011;8984;49.268;12.302;2023-10-31T09:19:49;1.10;;;1.00;;
17727;SDS011;8984;49.268;12.302;2023-10-31T09:22:19;1.67;;;0.90;;
17727;SDS011;8984;49.268;12.302;2023-10-31T09:24:55;7.47;;;5.40;;
17727;SDS011;8984;49.268;12.302;2023-10-31T09:27:25;11.90;;;8.00;;
17727;SDS011;8984;49.268;12.302;2023-10-31T09:29:53;3.87;;;2.70;;
17727;SDS011;8984;49.268;12.302;2023-10-31T09:32:22;3.87;;;1.23;;
17727;SDS011;8984;49.268;12.302;2023-10-31T09:34:58;26.43;;;16.90;;
17727;SDS011;8984;49.268;12.302;2023-10-31T09:37:42;26.47;;;16.67;;
17727;SDS011;8984;49.268;12.302;2023-10-31T09:40:26;8.30;;;5.50;;
17727;SDS011;8984;49.268;12.302;2023-10-31T09:42:58;5.60;;;3.83;;
17727;SDS011;8984;49.268;12.302;2023-10-31T09:45:41;4.23;;;2.40;;
17727;SDS011;8984;49.268;12.302;2023-10-31T09:48:14;1.90;;;1.70;;
17727;SDS011;8984;49.268;12.302;2023-10-31T09:50:49;6.30;;;3.80;;
17727;SDS011;8984;49.268;12.302;2023-10-31T09:53:19;3.70;;;3.40;;
17727;SDS011;8984;49.268;12.302;2023-10-31T09:55:57;2.27;;;1.60;;
17727;SDS011;8984;49.268;12.302;2023-10-31T09:59:05;2.60;;;1.63;;
17727;SDS011;8984;49.268;12.302;2023-10-31T10:01:36;2.10;;;1.40;;
17727;SDS011;8984;49.268;12.302;2023-10-31T10:04:10;19.73;;;11.03;;
17727;SDS011;8984;49.268;12.302;2023-10-31T10:06:41;4.93;;;3.10;;
17727;SDS011;8984;49.268;12.302;2023-10-31T10:09:19;4.97;;;2.97;;
17727;SDS011;8984;49.268;12.302;2023-10-31T10:11:52;4.00;;;1.40;;
17727;SDS011;8984;49.268;12.302;2023-10-31T10:14:37;1.93;;;1.00;;
17727;SDS011;8984;49.268;12.302;2023-10-31T10:17:21;4.90;;;1.37;;
17727;SDS011;8984;49.268;12.302;2023-10-31T10:20:06;3.67;;;2.23;;
17727;SDS011;8984;49.268;12.302;2023-10-31T10:22:51;2.17;;;1.80;;
17727;SDS011;8984;49.268;12.302;2023-10-31T10:28:28;7.43;;;4.50;;
17727;SDS011;8984;49.268;12.302;2023-10-31T10:31:24;6.40;;;4.60;;
17727;SDS011;8984;49.268;12.302;2023-10-31T10:34:08;3.53;;;3.00;;
17727;SDS011;8984;49.268;12.302;2023-10-31T10:36:46;2.07;;;1.30;;
17727;SDS011;8984;49.268;12.302;2023-10-31T10:39:39;1.20;;;1.00;;
17727;SDS011;8984;49.268;12.302;2023-10-31T10:42:10;2.90;;;2.27;;
17727;SDS011;8984;49.268;12.302;2023-10-31T10:44:49;3.10;;;2.00;;
17727;SDS011;8984;49.268;12.302;2023-10-31T10:47:23;1.70;;;1.47;;
17727;SDS011;8984;49.268;12.302;2023-10-31T10:49:51;2.43;;;1.50;;
17727;SDS011;8984;49.268;12.302;2023-10-31T10:52:28;1.80;;;0.90;;
17727;SDS011;8984;49.268;12.302;2023-10-31T10:55:01;1.90;;;1.00;;
17727;SDS011;8984;49.268;12.302;2023-10-31T10:57:41;2.40;;;1.00;;
17727;SDS011;8984;49.268;12.302;2023-10-31T11:00:39;1.67;;;1.07;;
17727;SDS011;8984;49.268;12.302;2023-10-31T11:03:08;1.20;;;1.10;;
17727;SDS011;8984;49.268;12.302;2023-10-31T11:05:40;1.93;;;1.10;;
17727;SDS011;8984;49.268;12.302;2023-10-31T11:08:14;1.87;;;1.10;;
17727;SDS011;8984;49.268;12.302;2023-10-31T11:11:11;1.33;;;1.10;;
17727;SDS011;8984;49.268;12.302;2023-10-31T11:13:59;2.50;;;1.00;;
17727;SDS011;8984;49.268;12.302;2023-10-31T11:16:37;1.13;;;1.00;;
17727;SDS011;8984;49.268;12.302;2023-10-31T11:19:13;1.60;;;1.10;;
17727;SDS011;8984;49.268;12.302;2023-10-31T11:21:53;4.00;;;1.47;;
17727;SDS011;8984;49.268;12.302;2023-10-31T11:24:27;1.37;;;1.20;;
17727;SDS011;8984;49.268;12.302;2023-10-31T11:27:00;2.37;;;1.30;;
17727;SDS011;8984;49.268;12.302;2023-10-31T11:35:21;2.17;;;1.63;;
17727;SDS011;8984;49.268;12.302;2023-10-31T11:38:07;4.97;;;2.27;;
17727;SDS011;8984;49.268;12.302;2023-10-31T11:40:46;2.23;;;1.40;;
17727;SDS011;8984;49.268;12.302;2023-10-31T11:43:51;1.47;;;1.37;;
17727;SDS011;8984;49.268;12.302;2023-10-31T11:46:26;2.13;;;1.63;;
17727;SDS011;8984;49.268;12.302;2023-10-31T11:49:01;1.47;;;1.33;;
17727;SDS011;8984;49.268;12.302;2023-10-31T11:51:40;3.13;;;1.50;;
17727;SDS011;8984;49.268;12.302;2023-10-31T11:54:31;2.03;;;1.40;;
17727;SDS011;8984;49.268;12.302;2023-10-31T11:57:26;2.57;;;1.20;;
17727;SDS011;8984;49.268;12.302;2023-10-31T12:00:06;1.47;;;1.10;;
17727;SDS011;8984;49.268;12.302;2023-10-31T12:02:58;1.43;;;1.13;;
17727;SDS011;8984;49.268;12.302;2023-10-31T12:05:34;1.27;;;1.00;;
17727;SDS011;8984;49.268;12.302;2023-10-31T12:08:10;1.33;;;1.20;;
17727;SDS011;8984;49.268;12.302;2023-10-31T12:10:40;1.40;;;0.90;;
17727;SDS011;8984;49.268;12.302;2023-10-31T12:13:25;2.70;;;2.10;;
17727;SDS011;8984;49.268;12.302;2023-10-31T12:16:09;2.10;;;1.20;;
17727;SDS011;8984;49.268;12.302;2023-10-31T12:18:57;1.63;;;1.30;;
17727;SDS011;8984;49.268;12.302;2023-10-31T12:21:42;2.03;;;1.13;;
17727;SDS011;8984;49.268;12.302;2023-10-31T12:24:35;1.47;;;1.17;;
17727;SDS011;8984;49.268;12.302;2023-10-31T12:27:03;1.50;;;1.33;;
17727;SDS011;8984;49.268;12.302;2023-10-31T12:29:39;1.43;;;1.10;;
17727;SDS011;8984;49.268;12.302;2023-10-31T12:32:12;2.37;;;1.30;;
17727;SDS011;8984;49.268;12.302;2023-10-31T12:35:00;3.30;;;1.60;;
17727;SDS011;8984;49.268;12.302;2023-10-31T12:37:33;3.10;;;1.57;;
17727;SDS011;8984;49.268;12.302;2023-10-31T12:40:02;2.47;;;1.40;;
17727;SDS011;8984;49.268;12.302;2023-10-31T12:42:50;1.77;;;1.10;;
17727;SDS011;8984;49.268;12.302;2023-10-31T12:45:25;2.43;;;1.10;;
17727;SDS011;8984;49.268;12.302;2023-10-31T12:48:04;2.30;;;1.40;;
17727;SDS011;8984;49.268;12.302;2023-10-31T12:50:41;1.40;;;1.17;;
17727;SDS011;8984;49.268;12.302;2023-10-31T12:53:22;2.33;;;1.27;;
17727;SDS011;8984;49.268;12.302;2023-10-31T12:56:05;2.17;;;1.13;;
17727;SDS011;8984;49.268;12.302;2023-10-31T12:58:35;1.23;;;1.03;;
17727;SDS011;8984;49.268;12.302;2023-10-31T13:01:10;2.83;;;1.03;;
17727;SDS011;8984;49.268;12.302;2023-10-31T13:03:59;1.10;;;1.00;;
17727;SDS011;8984;49.268;12.302;2023-10-31T13:06:28;1.20;;;1.10;;
17727;SDS011;8984;49.268;12.302;2023-10-31T13:09:12;1.37;;;1.03;;
17727;SDS011;8984;49.268;12.302;2023-10-31T13:11:43;1.00;;;0.90;;
17727;SDS011;8984;49.268;12.302;2023-10-31T13:14:15;4.00;;;1.90;;
17727;SDS011;8984;49.268;12.302;2023-10-31T13:16:51;1.87;;;1.20;;
17727;SDS011;8984;49.268;12.302;2023-10-31T13:19:20;2.40;;;1.30;;
17727;SDS011;8984;49.268;12.302;2023-10-31T13:21:59;3.60;;;1.10;;
17727;SDS011;8984;49.268;12.302;2023-10-31T13:24:30;1.53;;;1.43;;
17727;SDS011;8984;49.268;12.302;2023-10-31T13:27:02;2.70;;;1.97;;
17727;SDS011;8984;49.268;12.302;2023-10-31T13:29:31;2.10;;;1.30;;
17727;SDS011;8984;49.268;12.302;2023-10-31T13:32:08;3.50;;;1.60;;
17727;SDS011;8984;49.268;12.302;2023-10-31T13:34:41;1.73;;;1.47;;
17727;SDS011;8984;49.268;12.302;2023-10-31T13:37:09;2.17;;;1.50;;
17727;SDS011;8984;49.268;12.302;2023-10-31T13:45:21;2.33;;;1.50;;
17727;SDS011;8984;49.268;12.302;2023-10-31T13:47:49;1.90;;;1.07;;
17727;SDS011;8984;49.268;12.302;2023-10-31T13:50:16;3.77;;;1.50;;
17727;SDS011;8984;49.268;12.302;2023-10-31T13:52:48;2.07;;;1.40;;
17727;SDS011;8984;49.268;12.302;2023-10-31T13:55:42;1.53;;;1.30;;
17727;SDS011;8984;49.268;12.302;2023-10-31T13:58:17;2.47;;;1.73;;
17727;SDS011;8984;49.268;12.302;2023-10-31T14:00:50;3.93;;;1.70;;
17727;SDS011;8984;49.268;12.302;2023-10-31T14:03:38;4.07;;;1.63;;
17727;SDS011;8984;49.268;12.302;2023-10-31T14:06:12;3.10;;;1.83;;
17727;SDS011;8984;49.268;12.302;2023-10-31T14:08:58;2.97;;;1.30;;
17727;SDS011;8984;49.268;12.302;2023-10-31T14:11:39;5.37;;;1.87;;
17727;SDS011;8984;49.268;12.302;2023-10-31T14:14:14;2.97;;;2.00;;
17727;SDS011;8984;49.268;12.302;2023-10-31T14:16:44;4.70;;;1.70;;
17727;SDS011;8984;49.268;12.302;2023-10-31T14:19:14;2.63;;;1.60;;
17727;SDS011;8984;49.268;12.302;2023-10-31T14:21:45;2.20;;;1.70;;
17727;SDS011;8984;49.268;12.302;2023-10-31T14:24:15;4.90;;;1.80;;
17727;SDS011;8984;49.268;12.302;2023-10-31T14:26:46;3.63;;;2.00;;
17727;SDS011;8984;49.268;12.302;2023-10-31T14:29:17;3.37;;;2.50;;
17727;SDS011;8984;49.268;12.302;2023-10-31T14:31:47;4.37;;;2.57;;
17727;SDS011;8984;49.268;12.302;2023-10-31T14:34:19;3.47;;;2.00;;
17727;SDS011;8984;49.268;12.302;2023-10-31T14:36:58;5.93;;;2.90;;
17727;SDS011;8984;49.268;12.302;2023-10-31T14:39:27;7.07;;;3.00;;
17727;SDS011;8984;49.268;12.302;2023-10-31T14:45:08;2.13;;;1.33;;
17727;SDS011;8984;49.268;12.302;2023-10-31T14:47:45;3.73;;;1.10;;
17727;SDS011;8984;49.268;12.302;2023-10-31T14:50:14;1.23;;;1.10;;
17727;SDS011;8984;49.268;12.302;2023-10-31T14:52:42;2.57;;;1.30;;
17727;SDS011;8984;49.268;12.302;2023-10-31T14:55:22;2.67;;;1.30;;
17727;SDS011;8984;49.268;12.302;2023-10-31T14:57:52;2.90;;;1.47;;
17727;SDS011;8984;49.268;12.302;2023-10-31T15:00:20;3.07;;;1.50;;
17727;SDS011;8984;49.268;12.302;2023-10-31T15:02:53;6.90;;;3.00;;
17727;SDS011;8984;49.268;12.302;2023-10-31T15:05:39;4.20;;;3.20;;
17727;SDS011;8984;49.268;12.302;2023-10-31T15:08:11;5.00;;;3.27;;
17727;SDS011;8984;49.268;12.302;2023-10-31T15:10:39;7.50;;;2.50;;
17727;SDS011;8984;49.268;12.302;2023-10-31T15:13:19;3.27;;;1.93;;
17727;SDS011;8984;49.268;12.302;2023-10-31T15:16:08;2.37;;;1.70;;
17727;SDS011;8984;49.268;12.302;2023-10-31T15:18:36;4.43;;;1.70;;
17727;SDS011;8984;49.268;12.302;2023-10-31T15:21:06;3.73;;;1.80;;
17727;SDS011;8984;49.268;12.302;2023-10-31T15:23:34;5.40;;;2.00;;
17727;SDS011;8984;49.268;12.302;2023-10-31T15:26:07;3.27;;;1.70;;
17727;SDS011;8984;49.268;12.302;2023-10-31T15:28:51;4.33;;;1.50;;
17727;SDS011;8984;49.268;12.302;2023-10-31T15:31:21;3.23;;;1.67;;
17727;SDS011;8984;49.268;12.302;2023-10-31T15:33:50;17.47;;;8.10;;
17727;SDS011;8984;49.268;12.302;2023-10-31T15:36:20;6.57;;;4.50;;
17727;SDS011;8984;49.268;12.302;2023-10-31T15:38:59;4.50;;;3.80;;
17727;SDS011;8984;49.268;12.302;2023-10-31T15:41:32;4.93;;;2.53;;
17727;SDS011;8984;49.268;12.302;2023-10-31T15:44:11;3.07;;;2.07;;
17727;SDS011;8984;49.268;12.302;2023-10-31T15:46:40;3.67;;;1.90;;
17727;SDS011;8984;49.268;12.302;2023-10-31T15:49:07;3.90;;;2.00;;
17727;SDS011;8984;49.268;12.302;2023-10-31T15:51:36;5.17;;;2.27;;
17727;SDS011;8984;49.268;12.302;2023-10-31T15:54:11;3.67;;;2.17;;
17727;SDS011;8984;49.268;12.302;2023-10-31T15:56:38;5.13;;;2.47;;
17727;SDS011;8984;49.268;12.302;2023-10-31T15:59:06;3.27;;;2.33;;
17727;SDS011;8984;49.268;12.302;2023-10-31T16:01:35;6.93;;;2.83;;
17727;SDS011;8984;49.268;12.302;2023-10-31T16:04:03;4.33;;;2.47;;
17727;SDS011;8984;49.268;12.302;2023-10-31T16:06:31;4.87;;;2.13;;
17727;SDS011;8984;49.268;12.302;2023-10-31T16:09:06;5.57;;;2.40;;
17727;SDS011;8984;49.268;12.302;2023-10-31T16:11:45;3.77;;;1.90;;